Time;durP1;ratioP1;P1;durP2;ratioP2;P2;SDS_P1;SDS_P2;PMS_P1;PMS_P2;Temp;Humidity;BMP_temperature;BMP_pressure;BME280_temperature;BME280_humidity;BME280_pressure;Samples;Min_cycle;Max_cycle;Signal;HPM_P1;HPM_P2
2024/04/25 00:00:52;;;;;;;;;;;;;;;7.57;71.78;98979.67;130365;1260;106646;-78
2024/04/25 00:04:16;;;;;;;;;;;;;;;7.57;71.72;98983.73;130331;1261;107835;-77
2024/04/25 00:07:21;;;;;;;;;;;;;;;7.57;71.90;98988.10;130260;1262;108424;-78
2024/04/25 00:10:24;;;;;;;;;;;;;;;7.57;71.92;98989.77;130269;1260;106549;-78
2024/04/25 00:13:28;;;;;;;;;;;;;;;7.56;71.99;98987.50;130321;1263;106422;-77
2024/04/25 00:16:32;;;;;;;;;;;;;;;7.57;72.09;98987.41;130203;1260;108788;-77
2024/04/25 00:19:35;;;;;;;;;;;;;;;7.61;72.19;98990.49;130321;1262;107502;-77
2024/04/25 00:22:39;;;;;;;;;;;;;;;7.65;72.19;98988.34;130260;1263;108729;-77
2024/04/25 00:25:42;;;;;;;;;;;;;;;7.73;72.46;98990.44;130294;1262;106918;-77
2024/04/25 00:28:46;;;;;;;;;;;;;;;7.83;72.24;98990.23;130261;1262;107763;-77
2024/04/25 00:31:49;;;;;;;;;;;;;;;7.94;72.25;98986.52;130260;1262;108725;-77
2024/04/25 00:34:53;;;;;;;;;;;;;;;8.03;72.18;98989.38;130225;1262;107241;-77
2024/04/25 00:37:57;;;;;;;;;;;;;;;8.11;72.13;98986.02;130326;1259;108818;-77
2024/04/25 00:41:00;;;;;;;;;;;;;;;8.16;72.23;98990.23;130295;1262;107814;-77
2024/04/25 00:44:04;;;;;;;;;;;;;;;8.21;72.23;98989.89;130292;1262;108725;-77
2024/04/25 00:47:08;;;;;;;;;;;;;;;8.22;72.19;98990.66;130273;1262;108662;-77
2024/04/25 00:50:12;;;;;;;;;;;;;;;8.22;72.23;98988.83;130388;1259;106504;-78
2024/04/25 00:53:15;;;;;;;;;;;;;;;8.19;72.07;98991.17;130241;1262;106278;-77
2024/04/25 00:56:22;;;;;;;;;;;;;;;8.14;72.20;98990.88;130274;1262;107594;-78
2024/04/25 00:59:28;;;;;;;;;;;;;;;8.08;72.20;98988.16;130343;1262;106716;-77
2024/04/25 01:02:33;;;;;;;;;;;;;;;8.02;72.21;98985.54;130272;1260;107881;-78
2024/04/25 01:05:38;;;;;;;;;;;;;;;7.96;72.37;98982.16;130276;1262;106465;-77
2024/04/25 01:08:41;;;;;;;;;;;;;;;7.90;72.44;98978.74;130274;1259;106755;-78
2024/04/25 01:11:45;;;;;;;;;;;;;;;7.84;72.53;98985.20;130250;1262;106303;-77
2024/04/25 01:14:49;;;;;;;;;;;;;;;7.78;72.38;98979.38;130288;1260;108503;-77
2024/04/25 01:17:52;;;;;;;;;;;;;;;7.69;72.48;98979.36;130303;1260;107334;-77
2024/04/25 01:20:56;;;;;;;;;;;;;;;7.60;72.76;98978.25;130353;1262;106632;-77
2024/04/25 01:24:02;;;;;;;;;;;;;;;7.50;72.59;98977.23;130324;1262;109167;-77
2024/04/25 01:27:06;;;;;;;;;;;;;;;7.41;72.66;98979.40;130320;1262;108796;-77
2024/04/25 01:30:10;;;;;;;;;;;;;;;7.30;72.79;98976.46;130280;1264;108844;-78
2024/04/25 01:33:15;;;;;;;;;;;;;;;7.22;72.67;98973.93;130265;1259;108729;-77
2024/04/25 01:36:19;;;;;;;;;;;;;;;7.14;72.67;98976.14;130241;1262;106666;-78
2024/04/25 01:39:22;;;;;;;;;;;;;;;7.04;72.69;98977.27;130285;1262;107682;-77
2024/04/25 01:42:26;;;;;;;;;;;;;;;6.94;73.27;98980.30;130395;1259;107638;-77
2024/04/25 01:45:30;;;;;;;;;;;;;;;6.87;73.29;98978.41;130309;1260;106831;-77
2024/04/25 01:48:34;;;;;;;;;;;;;;;6.79;73.41;98983.30;130279;1262;106790;-77
2024/04/25 01:51:38;;;;;;;;;;;;;;;6.72;73.44;98985.65;130306;1259;108737;-79
2024/04/25 01:54:41;;;;;;;;;;;;;;;6.62;73.67;98984.45;130371;1262;106582;-77
2024/04/25 01:57:45;;;;;;;;;;;;;;;6.55;73.46;98987.52;130270;1260;106821;-77
2024/04/25 02:00:48;;;;;;;;;;;;;;;6.49;73.35;98985.45;130375;1262;107560;-77
2024/04/25 02:03:52;;;;;;;;;;;;;;;6.44;73.56;98985.88;130308;1262;107830;-77
2024/04/25 02:06:56;;;;;;;;;;;;;;;6.38;73.34;98991.88;130305;1262;108021;-78
2024/04/25 02:09:59;;;;;;;;;;;;;;;6.35;73.62;98991.86;130388;1259;107946;-78
2024/04/25 02:13:03;;;;;;;;;;;;;;;6.32;73.38;98994.13;130387;1262;105828;-78
2024/04/25 02:16:07;;;;;;;;;;;;;;;6.28;73.37;98991.79;130676;1257;107805;-79
2024/04/25 02:19:11;;;;;;;;;;;;;;;6.25;74.13;98995.48;130090;1262;108583;-77
2024/04/25 02:25:36;;;;;;;;;;;;;;;6.16;74.33;98993.94;130237;1264;105804;-76
2024/04/25 02:28:39;;;;;;;;;;;;;;;6.19;74.42;98995.48;130157;1260;107193;-77
2024/04/25 02:31:43;;;;;;;;;;;;;;;6.20;74.36;98996.70;130144;1265;107057;-78
2024/04/25 02:34:46;;;;;;;;;;;;;;;6.22;74.23;98996.60;130317;1266;107434;-82
2024/04/25 02:37:50;;;;;;;;;;;;;;;6.24;74.52;99002.36;130353;1261;108424;-81
2024/04/25 02:40:54;;;;;;;;;;;;;;;6.26;74.74;98998.73;130341;1259;107410;-82
2024/04/25 02:43:57;;;;;;;;;;;;;;;6.34;74.79;98997.12;130355;1264;107755;-78
2024/04/25 02:47:01;;;;;;;;;;;;;;;6.42;75.00;98998.92;130113;1260;214139;-73
2024/04/25 02:50:05;;;;;;;;;;;;;;;6.54;75.08;99001.60;130268;1260;107966;-73
2024/04/25 02:53:08;;;;;;;;;;;;;;;6.67;74.90;99005.17;130280;1273;107137;-75
2024/04/25 02:56:12;;;;;;;;;;;;;;;6.79;75.06;99005.92;130317;1262;107784;-73
2024/04/25 02:59:16;;;;;;;;;;;;;;;6.92;74.85;99010.41;130377;1262;106727;-73
2024/04/25 03:02:19;;;;;;;;;;;;;;;7.05;74.93;99009.70;130380;1262;106670;-73
2024/04/25 03:05:23;;;;;;;;;;;;;;;7.16;74.91;99009.52;130340;1260;108672;-73
2024/04/25 03:08:27;;;;;;;;;;;;;;;7.19;74.93;99008.41;130304;1260;107602;-73
2024/04/25 03:11:30;;;;;;;;;;;;;;;7.22;74.79;99004.61;130322;1272;106613;-74
2024/04/25 03:14:34;;;;;;;;;;;;;;;7.24;74.82;99009.72;130267;1259;107338;-73
2024/04/25 03:17:38;;;;;;;;;;;;;;;7.25;74.97;99013.30;130291;1262;106469;-73
2024/04/25 03:20:41;;;;;;;;;;;;;;;7.26;74.78;99011.02;130287;1263;108151;-74
2024/04/25 03:23:45;;;;;;;;;;;;;;;7.24;74.79;99016.35;130259;1262;106343;-75
2024/04/25 03:26:49;;;;;;;;;;;;;;;7.21;74.91;99015.88;130381;1262;108930;-75
2024/04/25 03:29:54;;;;;;;;;;;;;;;7.19;75.16;99018.30;130387;1260;107653;-74
2024/04/25 03:32:57;;;;;;;;;;;;;;;7.16;74.73;99017.29;130353;1262;107467;-74
2024/04/25 03:36:01;;;;;;;;;;;;;;;7.13;75.07;99018.44;130318;1260;108928;-74
2024/04/25 03:39:05;;;;;;;;;;;;;;;7.10;75.01;99023.00;130248;1262;108701;-74
2024/04/25 03:42:08;;;;;;;;;;;;;;;7.09;74.99;99026.71;130274;1262;108675;-74
2024/04/25 03:45:12;;;;;;;;;;;;;;;7.06;75.01;99027.61;130271;1262;107050;-74
2024/04/25 03:48:15;;;;;;;;;;;;;;;7.05;75.32;99027.77;130365;1262;108092;-74
2024/04/25 03:51:19;;;;;;;;;;;;;;;7.03;75.25;99033.83;130345;1259;107838;-74
2024/04/25 03:54:26;;;;;;;;;;;;;;;7.01;75.25;99032.42;130285;1262;106510;-74
2024/04/25 03:57:29;;;;;;;;;;;;;;;7.02;75.23;99034.77;130240;1262;108185;-74
2024/04/25 04:00:33;;;;;;;;;;;;;;;7.03;75.27;99037.58;130286;1260;107658;-74
2024/04/25 04:03:39;;;;;;;;;;;;;;;7.01;75.37;99037.89;130257;1262;108618;-75
2024/04/25 04:06:46;;;;;;;;;;;;;;;7.01;75.40;99040.58;130449;1257;106815;-74
2024/04/25 04:09:49;;;;;;;;;;;;;;;6.99;75.35;99044.41;130471;1263;106600;-74
2024/04/25 04:12:53;;;;;;;;;;;;;;;6.97;75.45;99045.00;130565;1262;107616;-74
2024/04/25 04:15:56;;;;;;;;;;;;;;;6.95;75.22;99042.97;130398;1259;108787;-74
2024/04/25 04:19:00;;;;;;;;;;;;;;;6.96;75.34;99046.41;130304;1259;108779;-74
2024/04/25 04:22:04;;;;;;;;;;;;;;;6.93;75.42;99046.16;130332;1260;108711;-74
2024/04/25 04:25:09;;;;;;;;;;;;;;;6.94;75.36;99051.67;130351;1262;107336;-74
2024/04/25 04:28:13;;;;;;;;;;;;;;;6.95;75.54;99049.81;130319;1260;107181;-74
2024/04/25 04:31:16;;;;;;;;;;;;;;;6.97;75.17;99053.16;130250;1262;106825;-74
2024/04/25 04:34:20;;;;;;;;;;;;;;;7.00;75.32;99053.91;130300;1262;108774;-74
2024/04/25 04:37:24;;;;;;;;;;;;;;;7.08;75.32;99059.61;130316;1259;106675;-74
2024/04/25 04:40:27;;;;;;;;;;;;;;;7.16;75.42;99062.52;130302;1262;107256;-74
2024/04/25 04:43:31;;;;;;;;;;;;;;;7.24;75.51;99062.22;130283;1259;107066;-74
2024/04/25 04:46:35;;;;;;;;;;;;;;;7.36;75.53;99063.41;130272;1262;107651;-74
2024/04/25 04:49:38;;;;;;;;;;;;;;;7.48;75.64;99063.17;130333;1260;108248;-73
2024/04/25 04:52:42;;;;;;;;;;;;;;;7.55;75.46;99065.19;130280;1260;107776;-74
2024/04/25 04:55:45;;;;;;;;;;;;;;;7.62;75.44;99070.94;130376;1262;108475;-73
2024/04/25 04:58:49;;;;;;;;;;;;;;;7.69;75.48;99074.98;130509;1260;108727;-73
2024/04/25 05:01:53;;;;;;;;;;;;;;;7.80;75.62;99079.31;130520;1259;108256;-74
2024/04/25 05:04:57;;;;;;;;;;;;;;;7.91;75.37;99084.17;130437;1262;107541;-73
2024/04/25 05:08:01;;;;;;;;;;;;;;;8.00;75.16;99083.89;130425;1263;108718;-72
2024/04/25 05:11:05;;;;;;;;;;;;;;;8.12;75.18;99091.11;130345;1262;108755;-72
2024/04/25 05:14:10;;;;;;;;;;;;;;;8.29;75.27;99090.10;130238;1262;106657;-73
2024/04/25 05:17:13;;;;;;;;;;;;;;;8.47;75.31;99093.05;130216;1262;106787;-72
2024/04/25 05:20:17;;;;;;;;;;;;;;;8.63;75.17;99093.52;130209;1262;106477;-72
2024/04/25 05:23:21;;;;;;;;;;;;;;;8.76;74.58;99093.69;130197;1259;107737;-73
2024/04/25 05:26:24;;;;;;;;;;;;;;;8.79;74.91;99095.02;130179;1262;108605;-72
2024/04/25 05:29:28;;;;;;;;;;;;;;;8.88;74.66;99095.45;130191;1260;107740;-72
2024/04/25 05:32:31;;;;;;;;;;;;;;;8.94;74.47;99097.20;130208;1263;107030;-72
2024/04/25 05:35:35;;;;;;;;;;;;;;;9.04;74.07;99101.30;130210;1273;107879;-73
2024/04/25 05:38:39;;;;;;;;;;;;;;;9.07;73.62;99102.45;130213;1262;108704;-73
2024/04/25 05:41:42;;;;;;;;;;;;;;;9.09;73.90;99102.67;130370;1262;107574;-73
2024/04/25 05:44:47;;;;;;;;;;;;;;;9.27;73.98;99103.53;130438;1263;106515;-73
2024/04/25 05:47:51;;;;;;;;;;;;;;;9.48;73.88;99107.98;130349;1262;108519;-73
2024/04/25 05:50:55;;;;;;;;;;;;;;;9.63;73.34;99107.05;130129;1262;108528;-73
2024/04/25 05:53:58;;;;;;;;;;;;;;;9.56;72.96;99111.62;130061;1259;107169;-73
2024/04/25 05:57:02;;;;;;;;;;;;;;;9.58;73.51;99113.30;130303;1262;108554;-72
2024/04/25 06:00:07;;;;;;;;;;;;;;;9.67;73.31;99113.73;130387;1262;107717;-72
2024/04/25 06:03:11;;;;;;;;;;;;;;;9.72;73.00;99116.98;130420;1261;108681;-72
2024/04/25 06:06:15;;;;;;;;;;;;;;;9.67;72.96;99122.38;130312;1262;106574;-72
2024/04/25 06:09:20;;;;;;;;;;;;;;;9.70;73.23;99128.41;130400;1262;108640;-72
2024/04/25 06:12:23;;;;;;;;;;;;;;;9.73;72.96;99127.56;130402;1260;109481;-72
2024/04/25 06:15:27;;;;;;;;;;;;;;;9.68;72.74;99133.16;130308;1262;107275;-73
2024/04/25 06:18:31;;;;;;;;;;;;;;;9.64;72.70;99134.64;130251;1260;107774;-73
2024/04/25 06:21:34;;;;;;;;;;;;;;;9.62;73.07;99140.74;130396;1262;105773;-73
2024/04/25 06:24:38;;;;;;;;;;;;;;;9.60;72.99;99140.05;130427;1262;106645;-73
2024/04/25 06:27:45;;;;;;;;;;;;;;;9.56;72.76;99148.37;130273;1263;107406;-73
2024/04/25 06:30:49;;;;;;;;;;;;;;;9.45;72.58;99154.30;130299;1262;107692;-73
2024/04/25 06:33:58;;;;;;;;;;;;;;;9.32;72.49;99159.88;130341;1269;107731;-73
2024/04/25 06:37:04;;;;;;;;;;;;;;;9.25;72.65;99159.07;130518;1263;106825;-73
2024/04/25 06:40:09;;;;;;;;;;;;;;;9.16;72.67;99160.47;130430;1263;108965;-72
2024/04/25 06:43:13;;;;;;;;;;;;;;;9.05;72.88;99164.98;130375;1260;107473;-73
2024/04/25 06:46:17;;;;;;;;;;;;;;;8.99;73.11;99167.38;130361;1270;108421;-73
2024/04/25 06:49:20;;;;;;;;;;;;;;;8.96;73.30;99168.48;130236;1271;107631;-72
2024/04/25 06:52:24;;;;;;;;;;;;;;;8.99;73.58;99165.61;130451;1262;107452;-72
2024/04/25 06:55:28;;;;;;;;;;;;;;;9.09;73.84;99168.62;130392;1262;107672;-72
2024/04/25 06:58:31;;;;;;;;;;;;;;;9.20;73.66;99176.29;130453;1261;106670;-72
2024/04/25 07:01:35;;;;;;;;;;;;;;;9.27;73.59;99178.23;130391;1262;107051;-72
2024/04/25 07:04:38;;;;;;;;;;;;;;;9.30;73.31;99185.14;130289;1271;108709;-72
2024/04/25 07:07:42;;;;;;;;;;;;;;;9.34;73.58;99183.27;130395;1270;108001;-72
2024/04/25 07:10:46;;;;;;;;;;;;;;;9.41;73.49;99184.64;130366;1262;107648;-73
2024/04/25 07:13:50;;;;;;;;;;;;;;;9.48;73.84;99189.58;130378;1261;107778;-72
2024/04/25 07:16:53;;;;;;;;;;;;;;;9.53;73.37;99189.72;130370;1262;106198;-73
2024/04/25 07:19:57;;;;;;;;;;;;;;;9.50;73.46;99195.16;130478;1261;106548;-72
2024/04/25 07:23:00;;;;;;;;;;;;;;;9.48;73.33;99194.48;130365;1261;107035;-73
2024/04/25 07:26:04;;;;;;;;;;;;;;;9.43;73.26;99197.92;130466;1262;107495;-73
2024/04/25 07:29:08;;;;;;;;;;;;;;;9.41;73.39;99206.45;130475;1271;108368;-73
2024/04/25 07:32:13;;;;;;;;;;;;;;;9.40;73.54;99210.80;130447;1262;108713;-73
2024/04/25 07:35:16;;;;;;;;;;;;;;;9.37;73.30;99216.64;130474;1263;106682;-72
2024/04/25 07:38:20;;;;;;;;;;;;;;;9.33;73.58;99219.27;130345;1262;106424;-72
2024/04/25 07:41:25;;;;;;;;;;;;;;;9.29;73.59;99229.10;130353;1271;106451;-73
2024/04/25 07:44:30;;;;;;;;;;;;;;;9.24;73.69;99229.68;130443;1262;106733;-73
2024/04/25 07:47:33;;;;;;;;;;;;;;;9.23;73.79;99234.01;130405;1263;106714;-72
2024/04/25 07:50:37;;;;;;;;;;;;;;;9.20;73.82;99238.54;130389;1262;106811;-72
2024/04/25 07:53:40;;;;;;;;;;;;;;;9.17;74.00;99246.95;130275;1262;108546;-72
2024/04/25 07:56:44;;;;;;;;;;;;;;;9.18;73.89;99247.88;130331;1262;107757;-72
2024/04/25 07:59:47;;;;;;;;;;;;;;;9.18;74.23;99248.35;130304;1263;106778;-72
2024/04/25 08:02:53;;;;;;;;;;;;;;;9.14;74.04;99242.77;130339;1261;106652;-73
2024/04/25 08:05:57;;;;;;;;;;;;;;;9.09;74.18;99241.39;130291;1262;108619;-72
2024/04/25 08:09:00;;;;;;;;;;;;;;;9.10;73.89;99240.29;130243;1263;107636;-72
2024/04/25 08:12:05;;;;;;;;;;;;;;;9.12;74.17;99239.88;130400;1270;106959;-72
2024/04/25 08:15:09;;;;;;;;;;;;;;;9.26;74.21;99239.19;130411;1263;106561;-73
2024/04/25 08:18:12;;;;;;;;;;;;;;;9.46;73.82;99236.29;130378;1263;107786;-72
2024/04/25 08:21:16;;;;;;;;;;;;;;;9.73;74.05;99238.73;130318;1269;108516;-74
2024/04/25 08:24:19;;;;;;;;;;;;;;;10.01;73.81;99237.56;130007;1265;108835;-73
2024/04/25 08:27:23;;;;;;;;;;;;;;;10.16;73.01;99239.21;130078;1273;107545;-73
2024/04/25 08:30:27;;;;;;;;;;;;;;;10.23;72.36;99241.40;130053;1263;108710;-72
2024/04/25 08:33:30;;;;;;;;;;;;;;;10.14;72.57;99240.15;130054;1265;108794;-72
2024/04/25 08:36:38;;;;;;;;;;;;;;;10.02;72.31;99250.78;130018;1263;106598;-72
2024/04/25 08:39:42;;;;;;;;;;;;;;;10.01;72.97;99252.98;130044;1265;108679;-73
2024/04/25 08:42:50;;;;;;;;;;;;;;;10.25;72.78;99246.04;130070;1263;108480;-73
2024/04/25 08:45:53;;;;;;;;;;;;;;;10.58;72.51;99247.10;130138;1263;106304;-72
2024/04/25 08:48:59;;;;;;;;;;;;;;;10.74;72.38;99249.45;130234;1273;106631;-72
2024/04/25 08:52:05;;;;;;;;;;;;;;;10.90;72.27;99244.62;130289;1262;106588;-73
2024/04/25 08:55:10;;;;;;;;;;;;;;;10.99;71.78;99248.80;130295;1266;108786;-73
2024/04/25 08:58:14;;;;;;;;;;;;;;;10.95;70.72;99245.20;130236;1263;108775;-73
2024/04/25 09:01:18;;;;;;;;;;;;;;;10.86;71.33;99246.98;130211;1264;106584;-73
2024/04/25 09:04:23;;;;;;;;;;;;;;;10.95;71.55;99243.67;130367;1265;108599;-73
2024/04/25 09:07:27;;;;;;;;;;;;;;;11.15;71.27;99238.08;131733;1262;107159;-73
2024/04/25 09:10:38;;;;;;;;;;;;;;;11.34;71.40;99241.83;130252;1263;108698;-74
2024/04/25 09:13:50;;;;;;;;;;;;;;;11.47;71.32;99233.95;130210;1263;107844;-73
2024/04/25 09:16:54;;;;;;;;;;;;;;;11.66;70.50;99229.89;130078;1263;107617;-73
2024/04/25 09:19:58;;;;;;;;;;;;;;;11.80;69.35;99234.89;130017;1262;108416;-73
2024/04/25 09:23:01;;;;;;;;;;;;;;;11.86;69.03;99235.34;130246;1265;108700;-73
2024/04/25 09:26:05;;;;;;;;;;;;;;;11.83;68.92;99239.77;130299;1263;107526;-73
2024/04/25 09:29:09;;;;;;;;;;;;;;;11.70;68.50;99241.05;130323;1263;108615;-73
2024/04/25 09:32:16;;;;;;;;;;;;;;;11.59;68.71;99244.19;130316;1263;107644;-73
2024/04/25 09:35:20;;;;;;;;;;;;;;;11.71;68.96;99245.70;130270;1263;107466;-73
2024/04/25 09:38:24;;;;;;;;;;;;;;;11.72;64.78;99244.24;130281;1264;108733;-73
2024/04/25 09:41:30;;;;;;;;;;;;;;;11.49;65.74;99242.45;130290;1261;108722;-73
2024/04/25 09:44:36;;;;;;;;;;;;;;;11.46;66.62;99243.11;130233;1273;107555;-73
2024/04/25 09:47:43;;;;;;;;;;;;;;;11.54;65.16;99243.45;130301;1272;107888;-73
2024/04/25 09:50:49;;;;;;;;;;;;;;;11.53;61.93;99243.70;130214;1272;107024;-73
2024/04/25 09:53:55;;;;;;;;;;;;;;;11.66;63.75;99232.30;130259;1264;106356;-73
2024/04/25 09:57:03;;;;;;;;;;;;;;;11.66;60.20;99233.39;130222;1264;108689;-73
2024/04/25 10:00:08;;;;;;;;;;;;;;;11.71;63.40;99230.17;130282;1263;107841;-73
2024/04/25 10:03:12;;;;;;;;;;;;;;;11.80;63.08;99233.87;130383;1264;108834;-73
2024/04/25 10:06:16;;;;;;;;;;;;;;;11.85;63.08;99227.63;130267;1273;106554;-73
2024/04/25 10:09:20;;;;;;;;;;;;;;;11.77;59.68;99219.64;130314;1273;107747;-73
2024/04/25 10:12:24;;;;;;;;;;;;;;;11.59;60.79;99219.89;130303;1263;108771;-73
2024/04/25 10:15:29;;;;;;;;;;;;;;;11.43;62.93;99216.47;130294;1264;107711;-73
2024/04/25 10:18:32;;;;;;;;;;;;;;;11.46;62.77;99217.50;130249;1263;107548;-73
2024/04/25 10:21:43;;;;;;;;;;;;;;;11.52;63.30;99214.09;130215;1264;107748;-73
2024/04/25 10:24:47;;;;;;;;;;;;;;;11.55;63.10;99214.75;130248;1273;108442;-73
2024/04/25 10:27:56;;;;;;;;;;;;;;;11.54;59.40;99212.96;130586;1264;109268;-73
2024/04/25 10:31:00;;;;;;;;;;;;;;;11.44;58.68;99213.77;130438;1263;107491;-73
2024/04/25 10:34:04;;;;;;;;;;;;;;;11.46;57.76;99210.39;130318;1261;107838;-73
2024/04/25 10:37:08;;;;;;;;;;;;;;;11.57;60.76;99205.12;130237;1268;107763;-73
2024/04/25 10:40:14;;;;;;;;;;;;;;;11.87;59.49;99202.45;130381;1262;108452;-73
2024/04/25 10:43:17;;;;;;;;;;;;;;;12.02;57.49;99202.73;130287;1262;107763;-74
2024/04/25 10:46:21;;;;;;;;;;;;;;;12.21;59.67;99194.83;130191;1269;107725;-73
2024/04/25 10:49:24;;;;;;;;;;;;;;;12.51;59.91;99188.42;130270;1261;107128;-74
2024/04/25 10:52:29;;;;;;;;;;;;;;;12.72;59.59;99197.21;130262;1265;106503;-74
2024/04/25 10:55:32;;;;;;;;;;;;;;;12.91;59.87;99199.30;130362;1270;107090;-73
2024/04/25 10:58:36;;;;;;;;;;;;;;;13.00;58.12;99195.26;130255;1262;108300;-74
2024/04/25 11:01:39;;;;;;;;;;;;;;;13.25;58.69;99193.42;130265;1263;108806;-73
2024/04/25 11:04:43;;;;;;;;;;;;;;;13.64;58.77;99193.48;130361;1271;107581;-74
2024/04/25 11:07:47;;;;;;;;;;;;;;;13.99;58.47;99198.13;130277;1264;107924;-73
2024/04/25 11:10:51;;;;;;;;;;;;;;;14.27;58.64;99190.41;130254;1270;107768;-73
2024/04/25 11:13:55;;;;;;;;;;;;;;;14.50;58.12;99191.27;130386;1270;107479;-73
2024/04/25 11:17:00;;;;;;;;;;;;;;;14.68;57.67;99193.63;130238;1264;107760;-75
2024/04/25 12:58:00;;;;;;;10.70;9.60;;;;;;;14.68;52.11;99185.40;127631;1288;648500;-77
2024/04/25 13:01:05;;;;;;;11.20;10.00;;;;;;;14.47;52.08;99187.05;130418;1260;176203;-74
2024/04/25 13:04:10;;;;;;;12.20;10.90;;;;;;;14.46;52.06;99190.10;130737;1259;107641;-75
2024/04/25 13:07:15;;;;;;;11.30;10.20;;;;;;;14.61;52.07;99181.18;130603;1254;107861;-75
2024/04/25 13:10:20;;;;;;;12.50;11.20;;;;;;;14.81;51.62;99176.60;130605;1259;107866;-76
2024/04/25 13:13:27;;;;;;;10.80;9.70;;;;;;;14.93;50.83;99161.96;130565;1254;107398;-76
2024/04/25 13:16:43;;;;;;;10.20;9.20;;;;;;;15.03;50.30;99164.94;130584;1260;107705;-77
2024/04/25 13:19:48;;;;;;;10.90;9.80;;;;;;;15.10;50.06;99166.62;130754;1259;108631;-76
2024/04/25 13:22:53;;;;;;;13.30;10.20;;;;;;;15.17;50.56;99164.79;130709;1267;107935;-78
2024/04/25 13:25:58;;;;;;;11.90;10.60;;;;;;;15.19;50.41;99169.49;130732;1260;108822;-76
2024/04/25 13:29:03;;;;;;;11.40;10.20;;;;;;;15.16;50.58;99179.96;130582;1260;108606;-78
2024/04/25 13:32:08;;;;;;;12.70;11.40;;;;;;;15.11;50.27;99181.38;130577;1260;107707;-77
2024/04/25 13:35:13;;;;;;;12.80;10.20;;;;;;;15.04;50.36;99169.44;130736;1260;108712;-75
2024/04/25 13:38:18;;;;;;;11.30;10.10;;;;;;;14.99;50.47;99175.07;130763;1267;106784;-75
2024/04/25 13:41:23;;;;;;;10.60;9.30;;;;;;;14.94;50.31;99173.21;130557;1260;106762;-75
2024/04/25 13:44:28;;;;;;;10.80;9.70;;;;;;;14.80;49.91;99181.73;130626;1259;107749;-75
2024/04/25 13:47:34;;;;;;;10.80;9.60;;;;;;;14.65;50.19;99183.08;130769;1257;108555;-76
2024/04/25 13:50:43;;;;;;;11.00;9.80;;;;;;;14.51;49.98;99184.16;130712;1260;108607;-77
2024/04/25 13:53:48;;;;;;;12.70;9.70;;;;;;;14.32;50.15;99198.92;130755;1254;107980;-77
2024/04/25 13:56:53;;;;;;;11.00;9.80;;;;;;;14.09;50.56;99211.15;130636;1258;106505;-76
2024/04/25 13:59:58;;;;;;;9.50;8.50;;;;;;;13.87;51.02;99217.46;130511;1267;107271;-76
2024/04/25 14:03:03;;;;;;;11.60;9.20;;;;;;;13.82;51.82;99214.39;130702;1267;108714;-76
2024/04/25 14:06:09;;;;;;;10.10;8.80;;;;;;;13.99;52.46;99214.59;130706;1255;108425;-77
2024/04/25 14:09:14;;;;;;;10.80;9.70;;;;;;;14.33;53.06;99208.08;130550;1257;106969;-78
2024/04/25 14:12:19;;;;;;;10.10;9.10;;;;;;;14.49;52.96;99207.16;130547;1260;108496;-77
2024/04/25 14:15:24;;;;;;;9.40;8.40;;;;;;;14.58;52.90;99198.48;130501;1260;107811;-76
2024/04/25 14:18:29;;;;;;;8.30;7.10;;;;;;;14.68;52.37;99196.60;130598;1257;108854;-77
2024/04/25 14:21:34;;;;;;;9.00;7.60;;;;;;;14.78;52.13;99190.45;130560;1267;106530;-76
2024/04/25 14:24:40;;;;;;;11.20;8.80;;;;;;;14.80;51.72;99187.39;130646;1260;108582;-76
2024/04/25 14:31:09;;;;;;;6.70;6.00;;;;;;;14.67;50.95;99189.95;130738;1258;108636;-76
2024/04/25 14:34:14;;;;;;;7.30;6.60;;;;;;;14.53;51.28;99194.48;130632;1260;106999;-75
2024/04/25 14:37:19;;;;;;;7.10;6.40;;;;;;;14.43;51.07;99203.67;130704;1257;106663;-75
2024/04/25 14:40:28;;;;;;;7.90;7.10;;;;;;;14.35;50.81;99200.61;130636;1254;106516;-79
2024/04/25 14:43:33;;;;;;;7.20;6.50;;;;;;;14.29;50.80;99201.39;130560;1258;106628;-76
2024/04/25 14:46:38;;;;;;;7.60;6.40;;;;;;;14.28;50.50;99198.62;130669;1270;108262;-76
2024/04/25 14:49:43;;;;;;;8.50;7.10;;;;;;;14.31;50.33;99194.33;130551;1254;107687;-76
2024/04/25 14:52:48;;;;;;;7.70;6.90;;;;;;;14.35;49.92;99188.80;130602;1257;108327;-75
2024/04/25 14:55:55;;;;;;;9.00;7.50;;;;;;;14.36;50.01;99194.41;130597;1258;107206;-75
2024/04/25 14:59:01;;;;;;;11.40;8.10;;;;;;;14.27;48.31;99190.16;130553;1254;108487;-76
2024/04/25 15:02:08;;;;;;;13.70;10.80;;;;;;;14.23;49.01;99187.70;130713;1259;108693;-76
2024/04/25 15:05:13;;;;;;;23.30;17.10;;;;;;;14.24;49.04;99188.66;130720;1254;108821;-76
2024/04/25 15:08:18;;;;;;;20.70;15.70;;;;;;;14.25;48.89;99192.75;130606;1255;106672;-76
2024/04/25 15:11:25;;;;;;;36.70;26.00;;;;;;;14.31;48.89;99201.65;130572;1269;108803;-76
2024/04/25 15:14:30;;;;;;;21.00;14.10;;;;;;;14.26;47.91;99209.17;130701;1260;107141;-76
2024/04/25 15:17:35;;;;;;;8.70;6.80;;;;;;;14.20;48.28;99231.58;130991;1251;106754;-76
2024/04/25 15:20:41;;;;;;;10.20;7.90;;;;;;;14.09;48.62;99251.23;130964;1253;107259;-76
2024/04/25 15:23:46;;;;;;;8.70;7.00;;;;;;;13.90;49.04;99243.59;131121;1253;108656;-75
2024/04/25 15:26:51;;;;;;;6.90;6.20;;;;;;;13.71;49.43;99251.91;131178;1254;107718;-75
2024/04/25 15:29:56;;;;;;;6.40;5.00;;;;;;;13.59;49.66;99258.32;131180;1255;106718;-75
2024/04/25 15:33:00;;;;;;;6.00;5.20;;;;;;;13.55;49.81;99271.45;131207;1254;107740;-75
2024/04/25 15:36:07;;;;;;;7.30;5.40;;;;;;;13.39;49.85;99273.26;131081;1251;107548;-75
2024/04/25 15:39:12;;;;;;;7.90;5.80;;;;;;;13.18;49.98;99279.29;130919;1253;107522;-76
2024/04/25 15:42:17;;;;;;;9.00;7.40;;;;;;;13.05;50.21;99267.35;131048;1254;108681;-76
2024/04/25 15:45:23;;;;;;;10.40;6.40;;;;;;;13.00;50.34;99260.17;131149;1253;106449;-78
2024/04/25 15:48:28;;;;;;;8.10;5.70;;;;;;;12.92;50.60;99257.60;131022;1254;106434;-76
2024/04/25 15:51:33;;;;;;;7.40;5.80;;;;;;;12.87;50.93;99259.41;131016;1254;107674;-74
2024/04/25 15:54:38;;;;;;;6.40;5.30;;;;;;;12.78;51.04;99249.20;131108;1254;106557;-74
2024/04/25 15:57:43;;;;;;;6.20;5.30;;;;;;;12.68;51.17;99245.56;131044;1251;106723;-76
2024/04/25 16:00:48;;;;;;;6.30;5.40;;;;;;;12.61;51.12;99238.63;131350;1254;107453;-83
2024/04/25 16:03:53;;;;;;;5.80;5.20;;;;;;;12.63;51.30;99235.14;131218;1253;108801;-75
2024/04/25 16:06:58;;;;;;;5.70;5.00;;;;;;;12.65;51.29;99230.51;131239;1255;105871;-74
2024/04/25 16:10:04;;;;;;;6.70;5.30;;;;;;;12.65;51.10;99226.35;130999;1254;107493;-78
2024/04/25 16:13:09;;;;;;;5.70;5.10;;;;;;;12.68;51.31;99224.40;131054;1254;106898;-74
2024/04/25 16:16:16;;;;;;;7.90;5.70;;;;;;;12.68;51.49;99225.10;131241;1255;108502;-74
2024/04/25 16:19:28;;;;;;;10.60;6.80;;;;;;;12.68;51.51;99223.70;131097;1251;107003;-74
2024/04/25 16:22:33;;;;;;;9.70;7.70;;;;;;;12.60;51.61;99226.59;131003;1251;108496;-74
2024/04/25 16:25:38;;;;;;;8.10;6.50;;;;;;;12.54;51.58;99224.36;131040;1253;108792;-74
2024/04/25 16:28:43;;;;;;;8.90;7.70;;;;;;;12.50;51.65;99223.16;131000;1254;108785;-74
2024/04/25 16:31:50;;;;;;;7.90;6.30;;;;;;;12.43;51.68;99222.44;131038;1254;107051;-74
2024/04/25 16:34:56;;;;;;;13.70;10.90;;;;;;;12.33;51.72;99221.55;131036;1253;108038;-74
2024/04/25 16:38:01;;;;;;;18.70;13.00;;;;;;;12.23;51.63;99222.23;131026;1253;106646;-75
2024/04/25 16:41:06;;;;;;;24.60;16.70;;;;;;;12.15;51.61;99218.94;131249;1254;108627;-75
2024/04/25 16:44:13;;;;;;;13.70;9.80;;;;;;;12.09;51.79;99221.86;131324;1253;107925;-78
2024/04/25 16:47:18;;;;;;;16.80;11.70;;;;;;;12.00;51.95;99225.38;131373;1251;108489;-76
2024/04/25 16:50:23;;;;;;;21.70;14.60;;;;;;;11.90;52.05;99224.34;131212;1254;108432;-75
2024/04/25 16:53:28;;;;;;;13.40;9.60;;;;;;;11.80;52.24;99224.95;131181;1251;106543;-73
2024/04/25 16:56:36;;;;;;;9.70;7.30;;;;;;;11.70;52.43;99221.89;131279;1254;108750;-76
2024/04/25 16:59:41;;;;;;;12.20;9.30;;;;;;;11.56;52.54;99224.59;131364;1263;107861;-74